sensor_id;sensor_type;location;lat;lon;timestamp;P1;durP1;ratioP1;P2;durP2;ratioP2
18188;SDS011;9219;50.396;8.546;2024-03-02T00:00:00;13.17;;;7.50;;
18188;SDS011;9219;50.396;8.546;2024-03-02T00:02:39;11.77;;;7.87;;
18188;SDS011;9219;50.396;8.546;2024-03-02T00:05:12;13.10;;;8.00;;
18188;SDS011;9219;50.396;8.546;2024-03-02T00:08:02;15.13;;;8.83;;
18188;SDS011;9219;50.396;8.546;2024-03-02T00:11:10;13.27;;;8.50;;
18188;SDS011;9219;50.396;8.546;2024-03-02T00:13:42;14.20;;;8.87;;
18188;SDS011;9219;50.396;8.546;2024-03-02T00:19:03;16.97;;;9.47;;
18188;SDS011;9219;50.396;8.546;2024-03-02T00:21:39;18.83;;;10.03;;
18188;SDS011;9219;50.396;8.546;2024-03-02T00:24:45;13.47;;;8.40;;
18188;SDS011;9219;50.396;8.546;2024-03-02T00:26:58;20.50;;;10.33;;
18188;SDS011;9219;50.396;8.546;2024-03-02T00:29:25;13.73;;;9.40;;
18188;SDS011;9219;50.396;8.546;2024-03-02T00:31:54;15.67;;;8.90;;
18188;SDS011;9219;50.396;8.546;2024-03-02T00:34:23;22.13;;;9.50;;
18188;SDS011;9219;50.396;8.546;2024-03-02T00:36:51;17.30;;;9.77;;
18188;SDS011;9219;50.396;8.546;2024-03-02T00:44:35;17.97;;;9.50;;
18188;SDS011;9219;50.396;8.546;2024-03-02T00:47:03;15.23;;;9.33;;
18188;SDS011;9219;50.396;8.546;2024-03-02T00:49:34;17.50;;;10.80;;
18188;SDS011;9219;50.396;8.546;2024-03-02T00:52:04;19.67;;;10.47;;
18188;SDS011;9219;50.396;8.546;2024-03-02T00:54:46;16.13;;;10.30;;
18188;SDS011;9219;50.396;8.546;2024-03-02T00:57:21;18.77;;;10.87;;
18188;SDS011;9219;50.396;8.546;2024-03-02T01:00:02;15.90;;;9.43;;
18188;SDS011;9219;50.396;8.546;2024-03-02T01:02:39;15.13;;;9.10;;
18188;SDS011;9219;50.396;8.546;2024-03-02T01:05:14;19.57;;;11.23;;
18188;SDS011;9219;50.396;8.546;2024-03-02T01:10:46;16.80;;;9.83;;
18188;SDS011;9219;50.396;8.546;2024-03-02T01:13:26;17.57;;;10.13;;
18188;SDS011;9219;50.396;8.546;2024-03-02T01:15:57;22.13;;;11.27;;
18188;SDS011;9219;50.396;8.546;2024-03-02T01:18:48;24.07;;;11.70;;
18188;SDS011;9219;50.396;8.546;2024-03-02T01:21:16;18.60;;;10.80;;
18188;SDS011;9219;50.396;8.546;2024-03-02T01:24:19;20.43;;;11.63;;
18188;SDS011;9219;50.396;8.546;2024-03-02T01:26:59;20.27;;;10.67;;
18188;SDS011;9219;50.396;8.546;2024-03-02T01:29:26;19.90;;;12.43;;
18188;SDS011;9219;50.396;8.546;2024-03-02T01:32:04;19.23;;;11.17;;
18188;SDS011;9219;50.396;8.546;2024-03-02T01:34:32;20.80;;;11.90;;
18188;SDS011;9219;50.396;8.546;2024-03-02T01:36:59;21.80;;;12.80;;
18188;SDS011;9219;50.396;8.546;2024-03-02T01:39:44;21.83;;;11.67;;
18188;SDS011;9219;50.396;8.546;2024-03-02T01:42:22;16.50;;;10.23;;
18188;SDS011;9219;50.396;8.546;2024-03-02T01:48:10;24.40;;;12.20;;
18188;SDS011;9219;50.396;8.546;2024-03-02T01:50:37;24.10;;;12.20;;
18188;SDS011;9219;50.396;8.546;2024-03-02T01:53:07;22.67;;;12.03;;
18188;SDS011;9219;50.396;8.546;2024-03-02T01:58:25;26.20;;;12.13;;
18188;SDS011;9219;50.396;8.546;2024-03-02T02:00:54;22.93;;;12.50;;
18188;SDS011;9219;50.396;8.546;2024-03-02T02:03:22;23.57;;;11.77;;
18188;SDS011;9219;50.396;8.546;2024-03-02T02:11:05;22.37;;;12.37;;
18188;SDS011;9219;50.396;8.546;2024-03-02T02:13:33;19.57;;;11.13;;
18188;SDS011;9219;50.396;8.546;2024-03-02T02:16:05;22.87;;;12.90;;
18188;SDS011;9219;50.396;8.546;2024-03-02T02:18:34;23.27;;;13.00;;
18188;SDS011;9219;50.396;8.546;2024-03-02T02:21:03;22.53;;;13.23;;
18188;SDS011;9219;50.396;8.546;2024-03-02T02:23:32;21.83;;;13.20;;
18188;SDS011;9219;50.396;8.546;2024-03-02T02:25:59;24.10;;;12.73;;
18188;SDS011;9219;50.396;8.546;2024-03-02T02:28:31;29.40;;;14.63;;
18188;SDS011;9219;50.396;8.546;2024-03-02T02:31:26;25.13;;;13.20;;
18188;SDS011;9219;50.396;8.546;2024-03-02T02:34:18;23.97;;;13.50;;
18188;SDS011;9219;50.396;8.546;2024-03-02T02:36:47;23.07;;;13.73;;
18188;SDS011;9219;50.396;8.546;2024-03-02T02:39:16;26.13;;;13.00;;
18188;SDS011;9219;50.396;8.546;2024-03-02T02:41:52;25.27;;;14.30;;
18188;SDS011;9219;50.396;8.546;2024-03-02T02:44:22;27.93;;;15.77;;
18188;SDS011;9219;50.396;8.546;2024-03-02T02:46:51;25.70;;;13.90;;
18188;SDS011;9219;50.396;8.546;2024-03-02T02:49:21;27.10;;;14.47;;
18188;SDS011;9219;50.396;8.546;2024-03-02T02:57:06;28.70;;;15.67;;
18188;SDS011;9219;50.396;8.546;2024-03-02T02:59:35;27.77;;;14.63;;
18188;SDS011;9219;50.396;8.546;2024-03-02T03:02:21;30.93;;;16.47;;
18188;SDS011;9219;50.396;8.546;2024-03-02T03:04:56;31.43;;;15.93;;
18188;SDS011;9219;50.396;8.546;2024-03-02T03:07:46;28.97;;;14.30;;
18188;SDS011;9219;50.396;8.546;2024-03-02T03:10:16;30.80;;;15.90;;
18188;SDS011;9219;50.396;8.546;2024-03-02T03:12:54;27.27;;;15.70;;
18188;SDS011;9219;50.396;8.546;2024-03-02T03:15:24;27.63;;;14.53;;
18188;SDS011;9219;50.396;8.546;2024-03-02T03:24:32;25.77;;;14.73;;
18188;SDS011;9219;50.396;8.546;2024-03-02T03:27:03;27.17;;;14.97;;
18188;SDS011;9219;50.396;8.546;2024-03-02T03:29:32;26.77;;;14.77;;
18188;SDS011;9219;50.396;8.546;2024-03-02T03:32:00;25.80;;;14.50;;
18188;SDS011;9219;50.396;8.546;2024-03-02T03:34:33;25.43;;;14.37;;
18188;SDS011;9219;50.396;8.546;2024-03-02T03:37:01;30.30;;;16.40;;
18188;SDS011;9219;50.396;8.546;2024-03-02T03:39:32;28.43;;;14.40;;
18188;SDS011;9219;50.396;8.546;2024-03-02T03:42:05;27.80;;;14.73;;
18188;SDS011;9219;50.396;8.546;2024-03-02T03:59:41;26.17;;;14.67;;
18188;SDS011;9219;50.396;8.546;2024-03-02T04:02:10;28.67;;;15.27;;
18188;SDS011;9219;50.396;8.546;2024-03-02T04:04:46;28.23;;;15.27;;
18188;SDS011;9219;50.396;8.546;2024-03-02T04:07:23;36.57;;;17.00;;
18188;SDS011;9219;50.396;8.546;2024-03-02T04:09:51;31.47;;;16.63;;
18188;SDS011;9219;50.396;8.546;2024-03-02T04:12:18;40.50;;;17.10;;
18188;SDS011;9219;50.396;8.546;2024-03-02T04:14:46;31.87;;;15.07;;
18188;SDS011;9219;50.396;8.546;2024-03-02T04:17:28;33.37;;;18.10;;
18188;SDS011;9219;50.396;8.546;2024-03-02T04:19:58;31.40;;;17.07;;
18188;SDS011;9219;50.396;8.546;2024-03-02T04:37:56;30.57;;;17.30;;
18188;SDS011;9219;50.396;8.546;2024-03-02T04:40:25;31.23;;;15.40;;
18188;SDS011;9219;50.396;8.546;2024-03-02T04:42:54;36.17;;;19.10;;
18188;SDS011;9219;50.396;8.546;2024-03-02T04:45:23;47.03;;;19.80;;
18188;SDS011;9219;50.396;8.546;2024-03-02T04:47:54;39.50;;;18.43;;
18188;SDS011;9219;50.396;8.546;2024-03-02T04:50:23;37.70;;;18.73;;
18188;SDS011;9219;50.396;8.546;2024-03-02T04:52:57;39.77;;;18.57;;
18188;SDS011;9219;50.396;8.546;2024-03-02T04:55:24;40.77;;;18.37;;
18188;SDS011;9219;50.396;8.546;2024-03-02T04:58:18;40.00;;;18.30;;
18188;SDS011;9219;50.396;8.546;2024-03-02T05:18:08;25.53;;;14.97;;
18188;SDS011;9219;50.396;8.546;2024-03-02T05:20:36;23.00;;;13.77;;
18188;SDS011;9219;50.396;8.546;2024-03-02T05:23:04;20.97;;;12.13;;
18188;SDS011;9219;50.396;8.546;2024-03-02T05:25:31;23.57;;;13.00;;
18188;SDS011;9219;50.396;8.546;2024-03-02T05:28:03;25.43;;;12.33;;
18188;SDS011;9219;50.396;8.546;2024-03-02T05:30:34;25.47;;;13.80;;
18188;SDS011;9219;50.396;8.546;2024-03-02T05:33:19;21.53;;;12.47;;
18188;SDS011;9219;50.396;8.546;2024-03-02T05:35:51;25.30;;;13.57;;
18188;SDS011;9219;50.396;8.546;2024-03-02T05:53:58;19.80;;;13.30;;
18188;SDS011;9219;50.396;8.546;2024-03-02T05:56:25;23.87;;;12.13;;
18188;SDS011;9219;50.396;8.546;2024-03-02T05:58:56;22.47;;;12.63;;
18188;SDS011;9219;50.396;8.546;2024-03-02T06:01:34;22.77;;;11.57;;
18188;SDS011;9219;50.396;8.546;2024-03-02T06:04:01;25.93;;;14.27;;
18188;SDS011;9219;50.396;8.546;2024-03-02T06:06:29;27.93;;;14.10;;
18188;SDS011;9219;50.396;8.546;2024-03-02T06:09:03;23.77;;;12.57;;
18188;SDS011;9219;50.396;8.546;2024-03-02T06:14:43;23.20;;;13.20;;
18188;SDS011;9219;50.396;8.546;2024-03-02T06:17:11;27.13;;;14.43;;
18188;SDS011;9219;50.396;8.546;2024-03-02T06:19:40;27.43;;;14.63;;
18188;SDS011;9219;50.396;8.546;2024-03-02T06:22:08;24.77;;;14.10;;
18188;SDS011;9219;50.396;8.546;2024-03-02T06:24:36;19.00;;;12.00;;
18188;SDS011;9219;50.396;8.546;2024-03-02T06:27:07;20.93;;;12.07;;
18188;SDS011;9219;50.396;8.546;2024-03-02T06:29:35;25.10;;;14.03;;
18188;SDS011;9219;50.396;8.546;2024-03-02T06:32:11;24.20;;;12.37;;
18188;SDS011;9219;50.396;8.546;2024-03-02T06:39:56;25.50;;;12.87;;
18188;SDS011;9219;50.396;8.546;2024-03-02T06:42:25;22.43;;;11.53;;
18188;SDS011;9219;50.396;8.546;2024-03-02T06:44:55;22.40;;;11.53;;
18188;SDS011;9219;50.396;8.546;2024-03-02T06:47:22;15.63;;;8.73;;
18188;SDS011;9219;50.396;8.546;2024-03-02T06:49:50;20.03;;;9.77;;
18188;SDS011;9219;50.396;8.546;2024-03-02T06:52:19;17.03;;;9.63;;
18188;SDS011;9219;50.396;8.546;2024-03-02T06:54:50;15.17;;;8.80;;
18188;SDS011;9219;50.396;8.546;2024-03-02T06:57:19;15.37;;;8.37;;
18188;SDS011;9219;50.396;8.546;2024-03-02T06:59:55;17.20;;;9.33;;
18188;SDS011;9219;50.396;8.546;2024-03-02T07:17:04;16.33;;;9.43;;
18188;SDS011;9219;50.396;8.546;2024-03-02T07:19:33;12.20;;;7.23;;
18188;SDS011;9219;50.396;8.546;2024-03-02T07:22:01;15.70;;;7.70;;
18188;SDS011;9219;50.396;8.546;2024-03-02T07:24:40;14.63;;;7.80;;
18188;SDS011;9219;50.396;8.546;2024-03-02T07:27:09;15.07;;;8.63;;
18188;SDS011;9219;50.396;8.546;2024-03-02T07:29:57;12.03;;;7.13;;
18188;SDS011;9219;50.396;8.546;2024-03-02T07:32:38;12.27;;;7.80;;
18188;SDS011;9219;50.396;8.546;2024-03-02T07:35:14;20.30;;;9.43;;
18188;SDS011;9219;50.396;8.546;2024-03-02T07:41:58;14.30;;;7.90;;
18188;SDS011;9219;50.396;8.546;2024-03-02T07:44:26;17.47;;;9.03;;
18188;SDS011;9219;50.396;8.546;2024-03-02T07:46:54;18.33;;;9.43;;
18188;SDS011;9219;50.396;8.546;2024-03-02T07:49:21;17.47;;;10.77;;
18188;SDS011;9219;50.396;8.546;2024-03-02T07:51:49;14.83;;;9.07;;
18188;SDS011;9219;50.396;8.546;2024-03-02T07:54:16;16.87;;;9.83;;
18188;SDS011;9219;50.396;8.546;2024-03-02T07:56:44;15.40;;;9.63;;
18188;SDS011;9219;50.396;8.546;2024-03-02T07:59:14;17.60;;;10.83;;
18188;SDS011;9219;50.396;8.546;2024-03-02T08:06:11;16.07;;;9.90;;
18188;SDS011;9219;50.396;8.546;2024-03-02T08:08:39;19.13;;;10.30;;
18188;SDS011;9219;50.396;8.546;2024-03-02T08:11:12;15.43;;;9.73;;
18188;SDS011;9219;50.396;8.546;2024-03-02T08:13:40;14.77;;;9.40;;
18188;SDS011;9219;50.396;8.546;2024-03-02T08:16:09;16.43;;;9.43;;
18188;SDS011;9219;50.396;8.546;2024-03-02T08:18:36;18.67;;;9.20;;
18188;SDS011;9219;50.396;8.546;2024-03-02T08:21:04;14.30;;;8.60;;
18188;SDS011;9219;50.396;8.546;2024-03-02T08:23:53;15.63;;;8.70;;
18188;SDS011;9219;50.396;8.546;2024-03-02T08:41:51;14.00;;;7.77;;
18188;SDS011;9219;50.396;8.546;2024-03-02T08:44:24;13.07;;;8.73;;
18188;SDS011;9219;50.396;8.546;2024-03-02T08:46:51;16.43;;;8.47;;
18188;SDS011;9219;50.396;8.546;2024-03-02T08:49:19;13.67;;;8.07;;
18188;SDS011;9219;50.396;8.546;2024-03-02T08:51:49;11.60;;;8.13;;
18188;SDS011;9219;50.396;8.546;2024-03-02T08:54:20;12.83;;;8.43;;
18188;SDS011;9219;50.396;8.546;2024-03-02T08:56:48;17.93;;;8.20;;
18188;SDS011;9219;50.396;8.546;2024-03-02T08:59:17;12.57;;;8.83;;
18188;SDS011;9219;50.396;8.546;2024-03-02T09:18:56;10.93;;;5.60;;
18188;SDS011;9219;50.396;8.546;2024-03-02T09:21:36;9.73;;;6.90;;
18188;SDS011;9219;50.396;8.546;2024-03-02T09:24:29;8.43;;;5.70;;
18188;SDS011;9219;50.396;8.546;2024-03-02T09:26:57;10.57;;;6.30;;
18188;SDS011;9219;50.396;8.546;2024-03-02T09:29:31;8.33;;;5.33;;
18188;SDS011;9219;50.396;8.546;2024-03-02T09:32:14;9.93;;;5.23;;
18188;SDS011;9219;50.396;8.546;2024-03-02T09:34:45;10.83;;;6.07;;
18188;SDS011;9219;50.396;8.546;2024-03-02T09:40:23;8.17;;;5.93;;
18188;SDS011;9219;50.396;8.546;2024-03-02T09:43:09;6.60;;;4.80;;
18188;SDS011;9219;50.396;8.546;2024-03-02T09:45:46;12.40;;;5.47;;
18188;SDS011;9219;50.396;8.546;2024-03-02T09:48:15;7.93;;;4.63;;
18188;SDS011;9219;50.396;8.546;2024-03-02T09:50:44;8.90;;;5.00;;
18188;SDS011;9219;50.396;8.546;2024-03-02T09:53:30;6.27;;;4.40;;
18188;SDS011;9219;50.396;8.546;2024-03-02T09:56:03;9.23;;;5.10;;
18188;SDS011;9219;50.396;8.546;2024-03-02T09:58:33;8.67;;;4.80;;
18188;SDS011;9219;50.396;8.546;2024-03-02T10:20:42;4.93;;;3.47;;
18188;SDS011;9219;50.396;8.546;2024-03-02T10:23:32;6.13;;;3.53;;
18188;SDS011;9219;50.396;8.546;2024-03-02T10:26:06;5.17;;;3.63;;
18188;SDS011;9219;50.396;8.546;2024-03-02T10:28:49;5.97;;;3.93;;
18188;SDS011;9219;50.396;8.546;2024-03-02T10:31:37;6.33;;;3.70;;
18188;SDS011;9219;50.396;8.546;2024-03-02T10:34:06;5.97;;;3.43;;
18188;SDS011;9219;50.396;8.546;2024-03-02T10:36:34;7.13;;;4.40;;
18188;SDS011;9219;50.396;8.546;2024-03-02T10:39:16;7.30;;;3.87;;
18188;SDS011;9219;50.396;8.546;2024-03-02T10:41:48;4.67;;;3.30;;
18188;SDS011;9219;50.396;8.546;2024-03-02T10:47:29;4.67;;;3.43;;
18188;SDS011;9219;50.396;8.546;2024-03-02T10:50:00;6.00;;;3.70;;
18188;SDS011;9219;50.396;8.546;2024-03-02T10:52:35;4.33;;;2.93;;
18188;SDS011;9219;50.396;8.546;2024-03-02T10:55:23;4.30;;;2.80;;
18188;SDS011;9219;50.396;8.546;2024-03-02T10:58:06;3.43;;;2.73;;
18188;SDS011;9219;50.396;8.546;2024-03-02T11:01:07;4.07;;;2.80;;
18188;SDS011;9219;50.396;8.546;2024-03-02T11:03:54;3.13;;;2.30;;
18188;SDS011;9219;50.396;8.546;2024-03-02T11:06:38;3.33;;;2.50;;
18188;SDS011;9219;50.396;8.546;2024-03-02T11:09:28;4.10;;;2.57;;
18188;SDS011;9219;50.396;8.546;2024-03-02T11:17:29;4.93;;;2.60;;
18188;SDS011;9219;50.396;8.546;2024-03-02T11:20:06;3.23;;;2.40;;
18188;SDS011;9219;50.396;8.546;2024-03-02T11:23:03;2.83;;;1.97;;
18188;SDS011;9219;50.396;8.546;2024-03-02T11:25:33;3.93;;;2.80;;
18188;SDS011;9219;50.396;8.546;2024-03-02T11:28:02;4.90;;;2.07;;
18188;SDS011;9219;50.396;8.546;2024-03-02T11:33:26;4.17;;;2.23;;
18188;SDS011;9219;50.396;8.546;2024-03-02T11:35:57;2.07;;;1.73;;
18188;SDS011;9219;50.396;8.546;2024-03-02T11:49:02;4.03;;;2.03;;
18188;SDS011;9219;50.396;8.546;2024-03-02T11:52:17;4.07;;;2.63;;
18188;SDS011;9219;50.396;8.546;2024-03-02T11:55:05;3.60;;;1.63;;
18188;SDS011;9219;50.396;8.546;2024-03-02T11:57:52;3.50;;;1.60;;
18188;SDS011;9219;50.396;8.546;2024-03-02T12:00:33;2.77;;;1.20;;
18188;SDS011;9219;50.396;8.546;2024-03-02T12:03:03;1.70;;;1.60;;
18188;SDS011;9219;50.396;8.546;2024-03-02T12:05:32;3.30;;;1.60;;
18188;SDS011;9219;50.396;8.546;2024-03-02T12:12:58;2.13;;;1.50;;
18188;SDS011;9219;50.396;8.546;2024-03-02T12:15:29;3.57;;;1.60;;
18188;SDS011;9219;50.396;8.546;2024-03-02T12:17:59;4.20;;;2.80;;
18188;SDS011;9219;50.396;8.546;2024-03-02T12:20:30;4.27;;;3.07;;
18188;SDS011;9219;50.396;8.546;2024-03-02T12:23:04;3.40;;;2.57;;
18188;SDS011;9219;50.396;8.546;2024-03-02T12:25:31;2.87;;;2.30;;
18188;SDS011;9219;50.396;8.546;2024-03-02T12:28:01;3.10;;;2.20;;
18188;SDS011;9219;50.396;8.546;2024-03-02T12:30:44;2.60;;;1.97;;
18188;SDS011;9219;50.396;8.546;2024-03-02T12:37:55;4.40;;;2.17;;
18188;SDS011;9219;50.396;8.546;2024-03-02T12:40:24;5.20;;;3.17;;
18188;SDS011;9219;50.396;8.546;2024-03-02T12:42:51;5.10;;;3.63;;
18188;SDS011;9219;50.396;8.546;2024-03-02T12:45:24;3.97;;;3.00;;
18188;SDS011;9219;50.396;8.546;2024-03-02T12:47:59;4.77;;;2.50;;
18188;SDS011;9219;50.396;8.546;2024-03-02T12:50:29;4.83;;;3.63;;
18188;SDS011;9219;50.396;8.546;2024-03-02T12:56:10;4.67;;;3.13;;
18188;SDS011;9219;50.396;8.546;2024-03-02T12:58:39;5.07;;;3.70;;
18188;SDS011;9219;50.396;8.546;2024-03-02T13:01:08;3.87;;;2.90;;
18188;SDS011;9219;50.396;8.546;2024-03-02T13:03:39;6.47;;;3.50;;
18188;SDS011;9219;50.396;8.546;2024-03-02T13:06:08;5.43;;;3.30;;
18188;SDS011;9219;50.396;8.546;2024-03-02T13:08:41;4.90;;;2.93;;
18188;SDS011;9219;50.396;8.546;2024-03-02T13:11:15;8.23;;;4.20;;
18188;SDS011;9219;50.396;8.546;2024-03-02T13:26:54;3.50;;;2.50;;
18188;SDS011;9219;50.396;8.546;2024-03-02T13:29:23;5.13;;;3.90;;
18188;SDS011;9219;50.396;8.546;2024-03-02T13:31:52;4.63;;;3.37;;
18188;SDS011;9219;50.396;8.546;2024-03-02T13:34:22;3.23;;;1.90;;
18188;SDS011;9219;50.396;8.546;2024-03-02T13:36:51;4.07;;;1.40;;
18188;SDS011;9219;50.396;8.546;2024-03-02T13:39:38;1.27;;;1.17;;
18188;SDS011;9219;50.396;8.546;2024-03-02T13:42:12;3.23;;;1.33;;
18188;SDS011;9219;50.396;8.546;2024-03-02T13:52:20;2.30;;;1.80;;
18188;SDS011;9219;50.396;8.546;2024-03-02T13:54:47;3.20;;;1.70;;
18188;SDS011;9219;50.396;8.546;2024-03-02T13:57:18;1.90;;;1.60;;
18188;SDS011;9219;50.396;8.546;2024-03-02T13:59:52;2.83;;;2.17;;
18188;SDS011;9219;50.396;8.546;2024-03-02T14:02:24;4.07;;;2.27;;
18188;SDS011;9219;50.396;8.546;2024-03-02T14:05:00;4.63;;;2.97;;
18188;SDS011;9219;50.396;8.546;2024-03-02T14:07:33;4.87;;;2.97;;
18188;SDS011;9219;50.396;8.546;2024-03-02T14:10:21;3.70;;;2.87;;
18188;SDS011;9219;50.396;8.546;2024-03-02T14:17:32;6.03;;;3.67;;
18188;SDS011;9219;50.396;8.546;2024-03-02T14:20:19;5.50;;;3.87;;
18188;SDS011;9219;50.396;8.546;2024-03-02T14:23:04;5.17;;;3.17;;
18188;SDS011;9219;50.396;8.546;2024-03-02T14:25:47;6.40;;;4.17;;
18188;SDS011;9219;50.396;8.546;2024-03-02T14:28:17;5.23;;;3.10;;
18188;SDS011;9219;50.396;8.546;2024-03-02T14:31:22;4.63;;;3.23;;
18188;SDS011;9219;50.396;8.546;2024-03-02T14:36:50;4.43;;;2.73;;
18188;SDS011;9219;50.396;8.546;2024-03-02T14:47:49;3.00;;;2.13;;
18188;SDS011;9219;50.396;8.546;2024-03-02T14:50:22;4.77;;;2.53;;
18188;SDS011;9219;50.396;8.546;2024-03-02T14:53:00;3.33;;;2.47;;
18188;SDS011;9219;50.396;8.546;2024-03-02T14:55:53;3.73;;;2.30;;
18188;SDS011;9219;50.396;8.546;2024-03-02T14:58:28;4.50;;;2.50;;
18188;SDS011;9219;50.396;8.546;2024-03-02T15:01:00;3.53;;;2.57;;
18188;SDS011;9219;50.396;8.546;2024-03-02T15:03:27;9.97;;;3.17;;
18188;SDS011;9219;50.396;8.546;2024-03-02T15:06:07;4.47;;;2.87;;
18188;SDS011;9219;50.396;8.546;2024-03-02T15:11:32;4.17;;;2.80;;
18188;SDS011;9219;50.396;8.546;2024-03-02T15:14:09;3.00;;;2.30;;
18188;SDS011;9219;50.396;8.546;2024-03-02T15:16:36;4.77;;;2.37;;
18188;SDS011;9219;50.396;8.546;2024-03-02T15:19:03;3.97;;;2.80;;
18188;SDS011;9219;50.396;8.546;2024-03-02T15:21:33;2.93;;;2.40;;
18188;SDS011;9219;50.396;8.546;2024-03-02T15:24:04;3.37;;;2.63;;
18188;SDS011;9219;50.396;8.546;2024-03-02T15:26:41;7.87;;;2.80;;
18188;SDS011;9219;50.396;8.546;2024-03-02T15:29:12;2.87;;;2.20;;
18188;SDS011;9219;50.396;8.546;2024-03-02T15:36:56;4.10;;;2.10;;
18188;SDS011;9219;50.396;8.546;2024-03-02T15:39:24;4.40;;;2.17;;
18188;SDS011;9219;50.396;8.546;2024-03-02T15:41:54;3.37;;;2.50;;
18188;SDS011;9219;50.396;8.546;2024-03-02T15:44:24;3.47;;;2.07;;
18188;SDS011;9219;50.396;8.546;2024-03-02T15:46:54;3.20;;;1.70;;
18188;SDS011;9219;50.396;8.546;2024-03-02T15:49:22;4.53;;;1.97;;
18188;SDS011;9219;50.396;8.546;2024-03-02T15:51:54;3.70;;;1.70;;
18188;SDS011;9219;50.396;8.546;2024-03-02T15:59:36;2.27;;;1.63;;
18188;SDS011;9219;50.396;8.546;2024-03-02T16:02:12;2.17;;;1.83;;
18188;SDS011;9219;50.396;8.546;2024-03-02T16:04:40;3.20;;;2.20;;
18188;SDS011;9219;50.396;8.546;2024-03-02T16:07:08;3.50;;;2.20;;
18188;SDS011;9219;50.396;8.546;2024-03-02T16:09:37;2.57;;;1.77;;
18188;SDS011;9219;50.396;8.546;2024-03-02T16:12:07;2.10;;;1.77;;
18188;SDS011;9219;50.396;8.546;2024-03-02T16:14:42;2.77;;;1.93;;
18188;SDS011;9219;50.396;8.546;2024-03-02T16:17:11;3.83;;;2.63;;
18188;SDS011;9219;50.396;8.546;2024-03-02T16:22:26;3.67;;;2.43;;
18188;SDS011;9219;50.396;8.546;2024-03-02T16:24:58;2.67;;;2.00;;
18188;SDS011;9219;50.396;8.546;2024-03-02T16:27:26;3.10;;;2.20;;
18188;SDS011;9219;50.396;8.546;2024-03-02T16:29:54;5.17;;;2.40;;
18188;SDS011;9219;50.396;8.546;2024-03-02T16:32:23;2.70;;;1.80;;
18188;SDS011;9219;50.396;8.546;2024-03-02T16:34:51;3.20;;;2.27;;
18188;SDS011;9219;50.396;8.546;2024-03-02T16:37:19;3.13;;;2.67;;
18188;SDS011;9219;50.396;8.546;2024-03-02T16:45:10;3.97;;;2.57;;
18188;SDS011;9219;50.396;8.546;2024-03-02T16:47:43;3.67;;;2.30;;
18188;SDS011;9219;50.396;8.546;2024-03-02T16:50:12;5.87;;;2.80;;
18188;SDS011;9219;50.396;8.546;2024-03-02T16:52:46;3.73;;;2.50;;
18188;SDS011;9219;50.396;8.546;2024-03-02T16:55:34;3.13;;;2.57;;
18188;SDS011;9219;50.396;8.546;2024-03-02T16:58:12;3.13;;;2.23;;
18188;SDS011;9219;50.396;8.546;2024-03-02T17:01:06;3.70;;;2.50;;
18188;SDS011;9219;50.396;8.546;2024-03-02T17:03:34;4.47;;;2.73;;
18188;SDS011;9219;50.396;8.546;2024-03-02T17:11:13;4.33;;;2.83;;
18188;SDS011;9219;50.396;8.546;2024-03-02T17:13:43;4.93;;;2.30;;
18188;SDS011;9219;50.396;8.546;2024-03-02T17:16:11;3.47;;;2.73;;
18188;SDS011;9219;50.396;8.546;2024-03-02T17:18:40;3.40;;;2.50;;
18188;SDS011;9219;50.396;8.546;2024-03-02T17:21:08;4.80;;;2.80;;
18188;SDS011;9219;50.396;8.546;2024-03-02T17:23:37;3.27;;;2.67;;
18188;SDS011;9219;50.396;8.546;2024-03-02T17:26:14;4.00;;;2.77;;
18188;SDS011;9219;50.396;8.546;2024-03-02T17:31:31;4.33;;;3.10;;
18188;SDS011;9219;50.396;8.546;2024-03-02T17:34:04;4.33;;;3.07;;
18188;SDS011;9219;50.396;8.546;2024-03-02T17:36:36;3.83;;;2.70;;
18188;SDS011;9219;50.396;8.546;2024-03-02T17:39:08;5.10;;;2.97;;
18188;SDS011;9219;50.396;8.546;2024-03-02T17:41:49;6.60;;;2.90;;
18188;SDS011;9219;50.396;8.546;2024-03-02T17:44:22;5.20;;;3.00;;
18188;SDS011;9219;50.396;8.546;2024-03-02T17:46:53;6.23;;;2.73;;
18188;SDS011;9219;50.396;8.546;2024-03-02T17:53:57;4.53;;;3.23;;
18188;SDS011;9219;50.396;8.546;2024-03-02T17:56:30;4.90;;;3.50;;
18188;SDS011;9219;50.396;8.546;2024-03-02T17:58:59;4.27;;;3.37;;
18188;SDS011;9219;50.396;8.546;2024-03-02T18:01:26;5.00;;;3.43;;
18188;SDS011;9219;50.396;8.546;2024-03-02T18:03:59;5.97;;;3.50;;
18188;SDS011;9219;50.396;8.546;2024-03-02T18:06:41;5.67;;;3.67;;
18188;SDS011;9219;50.396;8.546;2024-03-02T18:09:10;7.20;;;4.07;;
18188;SDS011;9219;50.396;8.546;2024-03-02T18:14:25;5.00;;;3.60;;
18188;SDS011;9219;50.396;8.546;2024-03-02T18:16:53;6.47;;;4.07;;
18188;SDS011;9219;50.396;8.546;2024-03-02T18:19:20;9.70;;;4.40;;
18188;SDS011;9219;50.396;8.546;2024-03-02T18:21:47;6.10;;;4.37;;
18188;SDS011;9219;50.396;8.546;2024-03-02T18:24:15;5.87;;;3.60;;
18188;SDS011;9219;50.396;8.546;2024-03-02T18:26:43;6.17;;;4.07;;
18188;SDS011;9219;50.396;8.546;2024-03-02T18:29:11;6.67;;;4.17;;
18188;SDS011;9219;50.396;8.546;2024-03-02T18:31:40;8.03;;;3.67;;
18188;SDS011;9219;50.396;8.546;2024-03-02T18:38:25;6.37;;;3.90;;
18188;SDS011;9219;50.396;8.546;2024-03-02T18:40:52;4.37;;;3.30;;
18188;SDS011;9219;50.396;8.546;2024-03-02T18:43:23;20.33;;;11.13;;
18188;SDS011;9219;50.396;8.546;2024-03-02T18:45:50;15.10;;;7.30;;
18188;SDS011;9219;50.396;8.546;2024-03-02T18:48:21;16.90;;;10.57;;
18188;SDS011;9219;50.396;8.546;2024-03-02T18:50:49;12.87;;;7.67;;
18188;SDS011;9219;50.396;8.546;2024-03-02T18:53:16;15.87;;;7.90;;
18188;SDS011;9219;50.396;8.546;2024-03-02T18:58:30;9.50;;;4.60;;
18188;SDS011;9219;50.396;8.546;2024-03-02T19:00:58;7.33;;;4.17;;
18188;SDS011;9219;50.396;8.546;2024-03-02T19:03:25;5.47;;;3.27;;
18188;SDS011;9219;50.396;8.546;2024-03-02T19:05:55;7.17;;;4.13;;
18188;SDS011;9219;50.396;8.546;2024-03-02T19:08:21;8.23;;;4.33;;
18188;SDS011;9219;50.396;8.546;2024-03-02T19:10:50;4.47;;;3.83;;
18188;SDS011;9219;50.396;8.546;2024-03-02T19:13:20;8.03;;;3.70;;
18188;SDS011;9219;50.396;8.546;2024-03-02T19:20:42;7.63;;;4.30;;
18188;SDS011;9219;50.396;8.546;2024-03-02T19:23:10;7.33;;;4.87;;
18188;SDS011;9219;50.396;8.546;2024-03-02T19:25:46;5.23;;;3.63;;
18188;SDS011;9219;50.396;8.546;2024-03-02T19:28:13;6.23;;;4.13;;
18188;SDS011;9219;50.396;8.546;2024-03-02T19:30:41;7.13;;;4.37;;
18188;SDS011;9219;50.396;8.546;2024-03-02T19:33:12;5.77;;;4.13;;
18188;SDS011;9219;50.396;8.546;2024-03-02T19:35:40;5.67;;;4.10;;
18188;SDS011;9219;50.396;8.546;2024-03-02T19:42:40;7.17;;;4.07;;
18188;SDS011;9219;50.396;8.546;2024-03-02T19:45:09;8.77;;;3.97;;
18188;SDS011;9219;50.396;8.546;2024-03-02T19:47:36;4.93;;;3.77;;
18188;SDS011;9219;50.396;8.546;2024-03-02T19:50:03;5.87;;;4.47;;
18188;SDS011;9219;50.396;8.546;2024-03-02T19:52:31;6.27;;;4.17;;
18188;SDS011;9219;50.396;8.546;2024-03-02T19:54:59;6.87;;;4.23;;
18188;SDS011;9219;50.396;8.546;2024-03-02T19:57:28;7.17;;;4.33;;
18188;SDS011;9219;50.396;8.546;2024-03-02T20:04:55;6.40;;;3.97;;
18188;SDS011;9219;50.396;8.546;2024-03-02T20:07:23;7.50;;;4.90;;
18188;SDS011;9219;50.396;8.546;2024-03-02T20:09:50;10.50;;;5.43;;
18188;SDS011;9219;50.396;8.546;2024-03-02T20:12:19;6.77;;;4.10;;
18188;SDS011;9219;50.396;8.546;2024-03-02T20:14:47;5.13;;;3.87;;
18188;SDS011;9219;50.396;8.546;2024-03-02T20:17:14;6.47;;;4.47;;
18188;SDS011;9219;50.396;8.546;2024-03-02T20:19:41;9.23;;;5.17;;
18188;SDS011;9219;50.396;8.546;2024-03-02T20:27:13;8.43;;;5.03;;
18188;SDS011;9219;50.396;8.546;2024-03-02T20:29:41;11.37;;;5.60;;
18188;SDS011;9219;50.396;8.546;2024-03-02T20:32:09;8.17;;;5.37;;
18188;SDS011;9219;50.396;8.546;2024-03-02T20:34:36;6.57;;;5.00;;
18188;SDS011;9219;50.396;8.546;2024-03-02T20:37:03;5.83;;;4.13;;
18188;SDS011;9219;50.396;8.546;2024-03-02T20:39:31;9.77;;;5.73;;
18188;SDS011;9219;50.396;8.546;2024-03-02T20:41:59;8.73;;;5.23;;